sensor_id;sensor_type;location;lat;lon;timestamp;temperature;humidity
26304;DHT22;70693;48.680;8.890;2023-12-14T00:01:14;12.60;99.90
26304;DHT22;70693;48.680;8.890;2023-12-14T00:03:40;12.60;99.90
26304;DHT22;70693;48.680;8.890;2023-12-14T00:06:12;12.60;99.90
26304;DHT22;70693;48.680;8.890;2023-12-14T00:08:37;12.60;99.90
26304;DHT22;70693;48.680;8.890;2023-12-14T00:11:04;12.60;99.90
26304;DHT22;70693;48.680;8.890;2023-12-14T00:13:30;12.60;99.90
26304;DHT22;70693;48.680;8.890;2023-12-14T00:15:56;12.60;99.90
26304;DHT22;70693;48.680;8.890;2023-12-14T00:18:21;12.60;99.90
26304;DHT22;70693;48.680;8.890;2023-12-14T00:20:47;12.60;99.90
26304;DHT22;70693;48.680;8.890;2023-12-14T00:23:13;12.60;99.90
26304;DHT22;70693;48.680;8.890;2023-12-14T00:25:39;12.50;99.90
26304;DHT22;70693;48.680;8.890;2023-12-14T00:28:05;12.50;99.90
26304;DHT22;70693;48.680;8.890;2023-12-14T00:30:30;12.50;99.90
26304;DHT22;70693;48.680;8.890;2023-12-14T00:32:56;12.50;99.90
26304;DHT22;70693;48.680;8.890;2023-12-14T00:35:21;12.50;99.90
26304;DHT22;70693;48.680;8.890;2023-12-14T00:37:47;12.50;99.90
26304;DHT22;70693;48.680;8.890;2023-12-14T00:40:13;12.50;99.90
26304;DHT22;70693;48.680;8.890;2023-12-14T00:42:38;12.50;99.90
26304;DHT22;70693;48.680;8.890;2023-12-14T00:45:04;12.50;99.90
26304;DHT22;70693;48.680;8.890;2023-12-14T00:47:30;12.50;99.90
26304;DHT22;70693;48.680;8.890;2023-12-14T00:49:55;12.50;99.90
26304;DHT22;70693;48.680;8.890;2023-12-14T00:52:21;12.50;99.90
26304;DHT22;70693;48.680;8.890;2023-12-14T00:54:46;12.50;99.90
26304;DHT22;70693;48.680;8.890;2023-12-14T00:57:12;12.40;99.90
26304;DHT22;70693;48.680;8.890;2023-12-14T00:59:38;12.50;99.90
26304;DHT22;70693;48.680;8.890;2023-12-14T01:02:03;12.40;99.90
26304;DHT22;70693;48.680;8.890;2023-12-14T01:04:29;12.40;99.90
26304;DHT22;70693;48.680;8.890;2023-12-14T01:06:55;12.40;99.90
26304;DHT22;70693;48.680;8.890;2023-12-14T01:09:20;12.50;99.90
26304;DHT22;70693;48.680;8.890;2023-12-14T01:11:46;12.40;99.90
26304;DHT22;70693;48.680;8.890;2023-12-14T01:14:11;12.40;99.90
26304;DHT22;70693;48.680;8.890;2023-12-14T01:16:37;12.40;99.90
26304;DHT22;70693;48.680;8.890;2023-12-14T01:19:04;12.40;99.90
26304;DHT22;70693;48.680;8.890;2023-12-14T01:21:31;12.40;99.90
26304;DHT22;70693;48.680;8.890;2023-12-14T01:23:57;12.40;99.90
26304;DHT22;70693;48.680;8.890;2023-12-14T01:26:22;12.40;99.90
26304;DHT22;70693;48.680;8.890;2023-12-14T01:28:48;12.40;99.90
26304;DHT22;70693;48.680;8.890;2023-12-14T01:31:14;12.40;99.90
26304;DHT22;70693;48.680;8.890;2023-12-14T01:33:39;12.40;99.90
26304;DHT22;70693;48.680;8.890;2023-12-14T01:36:05;12.40;99.90
26304;DHT22;70693;48.680;8.890;2023-12-14T01:38:31;12.30;99.90
26304;DHT22;70693;48.680;8.890;2023-12-14T01:40:57;12.40;99.90
26304;DHT22;70693;48.680;8.890;2023-12-14T01:43:23;12.40;99.90
26304;DHT22;70693;48.680;8.890;2023-12-14T01:45:49;12.30;99.90
26304;DHT22;70693;48.680;8.890;2023-12-14T01:48:14;12.30;99.90
26304;DHT22;70693;48.680;8.890;2023-12-14T01:50:40;12.30;99.90
26304;DHT22;70693;48.680;8.890;2023-12-14T01:53:05;12.30;99.90
26304;DHT22;70693;48.680;8.890;2023-12-14T01:55:31;12.30;99.90
26304;DHT22;70693;48.680;8.890;2023-12-14T01:57:57;12.30;99.90
26304;DHT22;70693;48.680;8.890;2023-12-14T02:00:38;12.30;99.90
26304;DHT22;70693;48.680;8.890;2023-12-14T02:03:05;12.30;99.90
26304;DHT22;70693;48.680;8.890;2023-12-14T02:05:31;12.30;99.90
26304;DHT22;70693;48.680;8.890;2023-12-14T02:07:56;12.30;99.90
26304;DHT22;70693;48.680;8.890;2023-12-14T02:10:23;12.30;99.90
26304;DHT22;70693;48.680;8.890;2023-12-14T02:12:48;12.30;99.90
26304;DHT22;70693;48.680;8.890;2023-12-14T02:15:14;12.30;99.90
26304;DHT22;70693;48.680;8.890;2023-12-14T02:17:40;12.30;99.90
26304;DHT22;70693;48.680;8.890;2023-12-14T02:20:06;12.30;99.90
26304;DHT22;70693;48.680;8.890;2023-12-14T02:22:54;12.30;99.90
26304;DHT22;70693;48.680;8.890;2023-12-14T02:25:21;12.30;99.90
26304;DHT22;70693;48.680;8.890;2023-12-14T02:27:49;12.30;99.90
26304;DHT22;70693;48.680;8.890;2023-12-14T02:30:16;12.30;99.90
26304;DHT22;70693;48.680;8.890;2023-12-14T02:32:42;12.30;99.90
26304;DHT22;70693;48.680;8.890;2023-12-14T02:35:08;12.30;99.90
26304;DHT22;70693;48.680;8.890;2023-12-14T02:37:34;12.30;99.90
26304;DHT22;70693;48.680;8.890;2023-12-14T02:40:02;12.30;99.90
26304;DHT22;70693;48.680;8.890;2023-12-14T02:42:29;12.30;99.90
26304;DHT22;70693;48.680;8.890;2023-12-14T02:44:56;12.30;99.90
26304;DHT22;70693;48.680;8.890;2023-12-14T02:47:21;12.30;99.90
26304;DHT22;70693;48.680;8.890;2023-12-14T02:49:47;12.30;99.90
26304;DHT22;70693;48.680;8.890;2023-12-14T02:52:13;12.30;99.90
26304;DHT22;70693;48.680;8.890;2023-12-14T02:54:39;12.20;99.90
26304;DHT22;70693;48.680;8.890;2023-12-14T02:57:04;12.20;99.90
26304;DHT22;70693;48.680;8.890;2023-12-14T02:59:30;12.20;99.90
26304;DHT22;70693;48.680;8.890;2023-12-14T03:01:56;12.20;99.90
26304;DHT22;70693;48.680;8.890;2023-12-14T03:04:22;12.20;99.90
26304;DHT22;70693;48.680;8.890;2023-12-14T03:06:47;12.20;99.90
26304;DHT22;70693;48.680;8.890;2023-12-14T03:09:13;12.20;99.90
26304;DHT22;70693;48.680;8.890;2023-12-14T03:11:38;12.20;99.90
26304;DHT22;70693;48.680;8.890;2023-12-14T03:14:04;12.20;99.90
26304;DHT22;70693;48.680;8.890;2023-12-14T03:16:30;12.20;99.90
26304;DHT22;70693;48.680;8.890;2023-12-14T03:18:55;12.20;99.90
26304;DHT22;70693;48.680;8.890;2023-12-14T03:21:22;12.20;99.90
26304;DHT22;70693;48.680;8.890;2023-12-14T03:23:49;12.20;99.90
26304;DHT22;70693;48.680;8.890;2023-12-14T03:26:14;12.20;99.90
26304;DHT22;70693;48.680;8.890;2023-12-14T03:28:40;12.20;99.90
26304;DHT22;70693;48.680;8.890;2023-12-14T03:31:05;12.20;99.90
26304;DHT22;70693;48.680;8.890;2023-12-14T03:33:31;12.20;99.90
26304;DHT22;70693;48.680;8.890;2023-12-14T03:35:56;12.20;99.90
26304;DHT22;70693;48.680;8.890;2023-12-14T03:38:22;12.20;99.90
26304;DHT22;70693;48.680;8.890;2023-12-14T03:40:48;12.20;99.90
26304;DHT22;70693;48.680;8.890;2023-12-14T03:43:13;12.20;99.90
26304;DHT22;70693;48.680;8.890;2023-12-14T03:45:39;12.20;99.90
26304;DHT22;70693;48.680;8.890;2023-12-14T03:48:05;12.10;99.90
26304;DHT22;70693;48.680;8.890;2023-12-14T03:50:30;12.10;99.90
26304;DHT22;70693;48.680;8.890;2023-12-14T03:52:58;12.20;99.90
26304;DHT22;70693;48.680;8.890;2023-12-14T03:55:23;12.20;99.90
26304;DHT22;70693;48.680;8.890;2023-12-14T03:57:50;12.20;99.90
26304;DHT22;70693;48.680;8.890;2023-12-14T04:00:16;12.20;99.90
26304;DHT22;70693;48.680;8.890;2023-12-14T04:02:42;12.10;99.90
26304;DHT22;70693;48.680;8.890;2023-12-14T04:05:08;12.10;99.90
26304;DHT22;70693;48.680;8.890;2023-12-14T04:07:35;12.10;99.90
26304;DHT22;70693;48.680;8.890;2023-12-14T04:10:01;12.10;99.90
26304;DHT22;70693;48.680;8.890;2023-12-14T04:12:27;12.20;99.90
26304;DHT22;70693;48.680;8.890;2023-12-14T04:14:53;12.10;99.90
26304;DHT22;70693;48.680;8.890;2023-12-14T04:17:18;12.10;99.90
26304;DHT22;70693;48.680;8.890;2023-12-14T04:19:44;12.10;99.90
26304;DHT22;70693;48.680;8.890;2023-12-14T04:22:09;12.20;99.90
26304;DHT22;70693;48.680;8.890;2023-12-14T04:24:35;12.10;99.90
26304;DHT22;70693;48.680;8.890;2023-12-14T04:27:00;12.10;99.90
26304;DHT22;70693;48.680;8.890;2023-12-14T04:29:26;12.10;99.90
26304;DHT22;70693;48.680;8.890;2023-12-14T04:31:52;12.10;99.90
26304;DHT22;70693;48.680;8.890;2023-12-14T04:34:18;12.10;99.90
26304;DHT22;70693;48.680;8.890;2023-12-14T04:36:48;12.10;99.90
26304;DHT22;70693;48.680;8.890;2023-12-14T04:39:13;12.10;99.90
26304;DHT22;70693;48.680;8.890;2023-12-14T04:41:39;12.10;99.90
26304;DHT22;70693;48.680;8.890;2023-12-14T04:44:05;12.10;99.90
26304;DHT22;70693;48.680;8.890;2023-12-14T04:46:30;12.10;99.90
26304;DHT22;70693;48.680;8.890;2023-12-14T04:48:56;12.10;99.90
26304;DHT22;70693;48.680;8.890;2023-12-14T04:51:21;12.10;99.90
26304;DHT22;70693;48.680;8.890;2023-12-14T04:53:47;12.10;99.90
26304;DHT22;70693;48.680;8.890;2023-12-14T04:56:13;12.10;99.90
26304;DHT22;70693;48.680;8.890;2023-12-14T04:58:39;12.10;99.90
26304;DHT22;70693;48.680;8.890;2023-12-14T05:01:06;12.10;99.90
26304;DHT22;70693;48.680;8.890;2023-12-14T05:03:33;12.10;99.90
26304;DHT22;70693;48.680;8.890;2023-12-14T05:05:58;12.10;99.90
26304;DHT22;70693;48.680;8.890;2023-12-14T05:08:25;12.10;99.90
26304;DHT22;70693;48.680;8.890;2023-12-14T05:10:50;12.10;99.90
26304;DHT22;70693;48.680;8.890;2023-12-14T05:13:16;12.10;99.90
26304;DHT22;70693;48.680;8.890;2023-12-14T05:15:41;12.10;99.90
26304;DHT22;70693;48.680;8.890;2023-12-14T05:18:07;12.10;99.90
26304;DHT22;70693;48.680;8.890;2023-12-14T05:20:34;12.10;99.90
26304;DHT22;70693;48.680;8.890;2023-12-14T05:23:00;12.10;99.90
26304;DHT22;70693;48.680;8.890;2023-12-14T05:25:26;12.10;99.90
26304;DHT22;70693;48.680;8.890;2023-12-14T05:27:51;12.10;99.90
26304;DHT22;70693;48.680;8.890;2023-12-14T05:30:20;12.10;99.90
26304;DHT22;70693;48.680;8.890;2023-12-14T05:32:46;12.10;99.90
26304;DHT22;70693;48.680;8.890;2023-12-14T05:35:12;12.10;99.90
26304;DHT22;70693;48.680;8.890;2023-12-14T05:37:40;12.00;99.90
26304;DHT22;70693;48.680;8.890;2023-12-14T05:40:07;12.00;99.90
26304;DHT22;70693;48.680;8.890;2023-12-14T05:42:34;12.10;99.90
26304;DHT22;70693;48.680;8.890;2023-12-14T05:45:00;12.00;99.90
26304;DHT22;70693;48.680;8.890;2023-12-14T05:47:26;12.10;99.90
26304;DHT22;70693;48.680;8.890;2023-12-14T05:49:52;12.00;99.90
26304;DHT22;70693;48.680;8.890;2023-12-14T05:52:18;12.00;99.90
26304;DHT22;70693;48.680;8.890;2023-12-14T05:54:43;12.00;99.90
26304;DHT22;70693;48.680;8.890;2023-12-14T05:57:09;12.00;99.90
26304;DHT22;70693;48.680;8.890;2023-12-14T05:59:39;12.10;99.90
26304;DHT22;70693;48.680;8.890;2023-12-14T06:02:05;12.00;99.90
26304;DHT22;70693;48.680;8.890;2023-12-14T06:04:32;12.00;99.90
26304;DHT22;70693;48.680;8.890;2023-12-14T06:06:57;12.00;99.90
26304;DHT22;70693;48.680;8.890;2023-12-14T06:09:24;12.00;99.90
26304;DHT22;70693;48.680;8.890;2023-12-14T06:11:55;12.00;99.90
26304;DHT22;70693;48.680;8.890;2023-12-14T06:14:20;12.10;99.90
26304;DHT22;70693;48.680;8.890;2023-12-14T06:16:46;12.10;99.90
26304;DHT22;70693;48.680;8.890;2023-12-14T06:19:12;12.20;99.90
26304;DHT22;70693;48.680;8.890;2023-12-14T06:21:37;12.20;99.90
26304;DHT22;70693;48.680;8.890;2023-12-14T06:24:03;12.20;99.90
26304;DHT22;70693;48.680;8.890;2023-12-14T06:26:29;12.20;99.90
26304;DHT22;70693;48.680;8.890;2023-12-14T06:28:54;12.30;99.90
26304;DHT22;70693;48.680;8.890;2023-12-14T06:31:21;12.30;99.90
26304;DHT22;70693;48.680;8.890;2023-12-14T06:33:47;12.30;99.90
26304;DHT22;70693;48.680;8.890;2023-12-14T06:36:17;12.30;99.90
26304;DHT22;70693;48.680;8.890;2023-12-14T06:38:43;12.30;99.90
26304;DHT22;70693;48.680;8.890;2023-12-14T06:41:20;12.30;99.90
26304;DHT22;70693;48.680;8.890;2023-12-14T06:43:46;12.40;99.90
26304;DHT22;70693;48.680;8.890;2023-12-14T06:46:11;12.40;99.90
26304;DHT22;70693;48.680;8.890;2023-12-14T06:48:37;12.40;99.90
26304;DHT22;70693;48.680;8.890;2023-12-14T06:51:02;12.40;99.90
26304;DHT22;70693;48.680;8.890;2023-12-14T06:53:28;12.40;99.90
26304;DHT22;70693;48.680;8.890;2023-12-14T06:55:55;12.40;99.90
26304;DHT22;70693;48.680;8.890;2023-12-14T06:58:20;12.40;99.90
26304;DHT22;70693;48.680;8.890;2023-12-14T07:00:46;12.40;99.90
26304;DHT22;70693;48.680;8.890;2023-12-14T07:03:13;12.40;99.90
26304;DHT22;70693;48.680;8.890;2023-12-14T07:05:38;12.40;99.90
26304;DHT22;70693;48.680;8.890;2023-12-14T07:08:04;12.40;99.90
26304;DHT22;70693;48.680;8.890;2023-12-14T07:10:30;12.40;99.90
26304;DHT22;70693;48.680;8.890;2023-12-14T07:12:56;12.40;99.90
26304;DHT22;70693;48.680;8.890;2023-12-14T07:15:22;12.40;99.90
26304;DHT22;70693;48.680;8.890;2023-12-14T07:17:47;12.40;99.90
26304;DHT22;70693;48.680;8.890;2023-12-14T07:20:13;12.40;99.90
26304;DHT22;70693;48.680;8.890;2023-12-14T07:22:39;12.40;99.90
26304;DHT22;70693;48.680;8.890;2023-12-14T07:25:04;12.40;99.90
26304;DHT22;70693;48.680;8.890;2023-12-14T07:27:31;12.40;99.90
26304;DHT22;70693;48.680;8.890;2023-12-14T07:29:57;12.40;99.90
26304;DHT22;70693;48.680;8.890;2023-12-14T07:32:22;12.40;99.90
26304;DHT22;70693;48.680;8.890;2023-12-14T07:34:48;12.40;99.90
26304;DHT22;70693;48.680;8.890;2023-12-14T07:37:14;12.40;99.90
26304;DHT22;70693;48.680;8.890;2023-12-14T07:39:39;12.40;99.90
26304;DHT22;70693;48.680;8.890;2023-12-14T07:42:05;12.30;99.90
26304;DHT22;70693;48.680;8.890;2023-12-14T07:44:31;12.40;99.90
26304;DHT22;70693;48.680;8.890;2023-12-14T07:47:01;12.30;99.90
26304;DHT22;70693;48.680;8.890;2023-12-14T07:49:26;12.30;99.90
26304;DHT22;70693;48.680;8.890;2023-12-14T07:51:52;12.30;99.90
26304;DHT22;70693;48.680;8.890;2023-12-14T07:54:18;12.30;99.90
26304;DHT22;70693;48.680;8.890;2023-12-14T07:56:44;12.30;99.90
26304;DHT22;70693;48.680;8.890;2023-12-14T07:59:10;12.30;99.90
26304;DHT22;70693;48.680;8.890;2023-12-14T08:01:36;12.30;99.90
26304;DHT22;70693;48.680;8.890;2023-12-14T08:04:02;12.30;99.90
26304;DHT22;70693;48.680;8.890;2023-12-14T08:06:29;12.30;99.90
26304;DHT22;70693;48.680;8.890;2023-12-14T08:08:55;12.30;99.90
26304;DHT22;70693;48.680;8.890;2023-12-14T08:11:23;12.30;99.90
26304;DHT22;70693;48.680;8.890;2023-12-14T08:13:49;12.40;99.90
26304;DHT22;70693;48.680;8.890;2023-12-14T08:16:14;12.40;99.90
26304;DHT22;70693;48.680;8.890;2023-12-14T08:18:43;12.40;99.90
26304;DHT22;70693;48.680;8.890;2023-12-14T08:21:10;12.40;99.90
26304;DHT22;70693;48.680;8.890;2023-12-14T08:23:35;12.40;99.90
26304;DHT22;70693;48.680;8.890;2023-12-14T08:26:01;12.50;99.90
26304;DHT22;70693;48.680;8.890;2023-12-14T08:28:28;12.50;99.90
26304;DHT22;70693;48.680;8.890;2023-12-14T08:30:53;12.50;99.90
26304;DHT22;70693;48.680;8.890;2023-12-14T08:33:19;12.60;99.90
26304;DHT22;70693;48.680;8.890;2023-12-14T08:35:45;12.60;99.90
26304;DHT22;70693;48.680;8.890;2023-12-14T08:38:10;12.70;99.90
26304;DHT22;70693;48.680;8.890;2023-12-14T08:40:38;12.70;99.90
26304;DHT22;70693;48.680;8.890;2023-12-14T08:43:04;12.70;99.90
26304;DHT22;70693;48.680;8.890;2023-12-14T08:45:30;12.80;99.90
26304;DHT22;70693;48.680;8.890;2023-12-14T08:47:56;12.80;99.90
26304;DHT22;70693;48.680;8.890;2023-12-14T08:50:21;12.80;99.90
26304;DHT22;70693;48.680;8.890;2023-12-14T08:52:47;12.90;99.90
26304;DHT22;70693;48.680;8.890;2023-12-14T08:55:13;13.00;99.90
26304;DHT22;70693;48.680;8.890;2023-12-14T08:57:39;13.00;99.90
26304;DHT22;70693;48.680;8.890;2023-12-14T09:00:05;13.00;99.90
26304;DHT22;70693;48.680;8.890;2023-12-14T09:02:32;13.10;99.90
26304;DHT22;70693;48.680;8.890;2023-12-14T09:04:58;13.10;99.90
26304;DHT22;70693;48.680;8.890;2023-12-14T09:07:24;13.20;99.90
26304;DHT22;70693;48.680;8.890;2023-12-14T09:09:50;13.20;99.90
26304;DHT22;70693;48.680;8.890;2023-12-14T09:12:15;13.30;99.90
26304;DHT22;70693;48.680;8.890;2023-12-14T09:14:41;13.30;99.90
26304;DHT22;70693;48.680;8.890;2023-12-14T09:17:07;13.40;99.90
26304;DHT22;70693;48.680;8.890;2023-12-14T09:19:32;13.40;99.90
26304;DHT22;70693;48.680;8.890;2023-12-14T09:21:58;13.40;99.90
26304;DHT22;70693;48.680;8.890;2023-12-14T09:24:24;13.50;99.90
26304;DHT22;70693;48.680;8.890;2023-12-14T09:26:52;13.50;99.90
26304;DHT22;70693;48.680;8.890;2023-12-14T09:29:18;13.60;99.90
26304;DHT22;70693;48.680;8.890;2023-12-14T09:31:45;13.60;99.90
26304;DHT22;70693;48.680;8.890;2023-12-14T09:34:11;13.60;99.90
26304;DHT22;70693;48.680;8.890;2023-12-14T09:36:37;13.70;99.90
26304;DHT22;70693;48.680;8.890;2023-12-14T09:39:03;13.80;99.90
26304;DHT22;70693;48.680;8.890;2023-12-14T09:41:29;13.70;99.90
26304;DHT22;70693;48.680;8.890;2023-12-14T09:43:55;13.80;99.90
26304;DHT22;70693;48.680;8.890;2023-12-14T09:46:21;13.90;99.90
26304;DHT22;70693;48.680;8.890;2023-12-14T09:48:48;13.90;99.90
26304;DHT22;70693;48.680;8.890;2023-12-14T09:51:16;14.00;99.90
26304;DHT22;70693;48.680;8.890;2023-12-14T09:53:43;14.00;99.90
26304;DHT22;70693;48.680;8.890;2023-12-14T09:56:08;14.00;99.90
26304;DHT22;70693;48.680;8.890;2023-12-14T09:58:34;14.10;99.90
26304;DHT22;70693;48.680;8.890;2023-12-14T10:01:00;14.10;99.90
26304;DHT22;70693;48.680;8.890;2023-12-14T10:03:30;14.20;99.90
26304;DHT22;70693;48.680;8.890;2023-12-14T10:05:58;14.20;99.90
26304;DHT22;70693;48.680;8.890;2023-12-14T10:08:27;14.20;99.90
26304;DHT22;70693;48.680;8.890;2023-12-14T10:10:54;14.30;99.90
26304;DHT22;70693;48.680;8.890;2023-12-14T10:13:35;14.30;99.90
26304;DHT22;70693;48.680;8.890;2023-12-14T10:16:02;14.30;99.90
26304;DHT22;70693;48.680;8.890;2023-12-14T10:18:27;14.30;99.90
26304;DHT22;70693;48.680;8.890;2023-12-14T10:20:54;14.40;99.90
26304;DHT22;70693;48.680;8.890;2023-12-14T10:23:21;14.40;99.90
26304;DHT22;70693;48.680;8.890;2023-12-14T10:25:47;14.40;99.90
26304;DHT22;70693;48.680;8.890;2023-12-14T10:28:13;14.40;99.90
26304;DHT22;70693;48.680;8.890;2023-12-14T10:30:39;14.40;99.90
26304;DHT22;70693;48.680;8.890;2023-12-14T10:33:05;14.50;99.90
26304;DHT22;70693;48.680;8.890;2023-12-14T10:35:31;14.50;99.90
26304;DHT22;70693;48.680;8.890;2023-12-14T10:38:05;14.50;99.90
26304;DHT22;70693;48.680;8.890;2023-12-14T10:40:32;14.50;99.90
26304;DHT22;70693;48.680;8.890;2023-12-14T10:42:59;14.60;99.90
26304;DHT22;70693;48.680;8.890;2023-12-14T10:45:32;14.60;99.90
26304;DHT22;70693;48.680;8.890;2023-12-14T10:48:02;14.60;99.90
26304;DHT22;70693;48.680;8.890;2023-12-14T10:50:30;14.60;99.90
26304;DHT22;70693;48.680;8.890;2023-12-14T10:52:57;14.70;99.90
26304;DHT22;70693;48.680;8.890;2023-12-14T10:55:36;14.70;99.90
26304;DHT22;70693;48.680;8.890;2023-12-14T10:58:03;14.70;99.90
26304;DHT22;70693;48.680;8.890;2023-12-14T11:00:31;14.80;99.90
26304;DHT22;70693;48.680;8.890;2023-12-14T11:02:57;14.80;99.90
26304;DHT22;70693;48.680;8.890;2023-12-14T11:05:23;14.80;99.90
26304;DHT22;70693;48.680;8.890;2023-12-14T11:08:04;14.80;99.90
26304;DHT22;70693;48.680;8.890;2023-12-14T11:10:42;14.90;99.90
26304;DHT22;70693;48.680;8.890;2023-12-14T11:13:11;14.90;99.90
26304;DHT22;70693;48.680;8.890;2023-12-14T11:15:40;15.00;99.90
26304;DHT22;70693;48.680;8.890;2023-12-14T11:20:49;15.00;99.90
26304;DHT22;70693;48.680;8.890;2023-12-14T11:25:52;15.10;99.90
26304;DHT22;70693;48.680;8.890;2023-12-14T11:28:19;15.10;99.90
26304;DHT22;70693;48.680;8.890;2023-12-14T11:30:46;15.20;99.90
26304;DHT22;70693;48.680;8.890;2023-12-14T11:33:12;15.20;99.90
26304;DHT22;70693;48.680;8.890;2023-12-14T11:35:39;15.30;99.90
26304;DHT22;70693;48.680;8.890;2023-12-14T11:38:04;15.30;99.90
26304;DHT22;70693;48.680;8.890;2023-12-14T11:40:36;15.30;99.90
26304;DHT22;70693;48.680;8.890;2023-12-14T11:43:03;15.40;99.90
26304;DHT22;70693;48.680;8.890;2023-12-14T11:45:38;15.40;99.90
26304;DHT22;70693;48.680;8.890;2023-12-14T11:48:09;15.40;99.90
26304;DHT22;70693;48.680;8.890;2023-12-14T11:50:40;15.50;99.90
26304;DHT22;70693;48.680;8.890;2023-12-14T11:53:07;15.50;99.90
26304;DHT22;70693;48.680;8.890;2023-12-14T11:55:35;15.50;99.90
26304;DHT22;70693;48.680;8.890;2023-12-14T11:58:03;15.50;99.90
26304;DHT22;70693;48.680;8.890;2023-12-14T12:00:29;15.50;99.90
26304;DHT22;70693;48.680;8.890;2023-12-14T12:05:41;15.60;99.90
26304;DHT22;70693;48.680;8.890;2023-12-14T12:08:09;15.60;99.90
26304;DHT22;70693;48.680;8.890;2023-12-14T12:10:36;15.60;99.90
26304;DHT22;70693;48.680;8.890;2023-12-14T12:13:03;15.60;99.90
26304;DHT22;70693;48.680;8.890;2023-12-14T12:15:31;15.60;99.90
26304;DHT22;70693;48.680;8.890;2023-12-14T12:17:57;15.60;99.90
26304;DHT22;70693;48.680;8.890;2023-12-14T12:20:23;15.70;99.90
26304;DHT22;70693;48.680;8.890;2023-12-14T12:22:51;15.70;99.90
26304;DHT22;70693;48.680;8.890;2023-12-14T12:25:16;15.70;99.90
26304;DHT22;70693;48.680;8.890;2023-12-14T12:27:42;15.70;99.90
26304;DHT22;70693;48.680;8.890;2023-12-14T12:30:09;15.70;99.90
26304;DHT22;70693;48.680;8.890;2023-12-14T12:32:35;15.70;99.90
26304;DHT22;70693;48.680;8.890;2023-12-14T12:35:01;15.70;99.90
26304;DHT22;70693;48.680;8.890;2023-12-14T12:37:26;15.70;99.90
26304;DHT22;70693;48.680;8.890;2023-12-14T12:39:52;15.70;99.90
26304;DHT22;70693;48.680;8.890;2023-12-14T12:42:18;15.70;99.90
26304;DHT22;70693;48.680;8.890;2023-12-14T12:44:43;15.80;99.90
26304;DHT22;70693;48.680;8.890;2023-12-14T12:47:09;15.80;99.90
26304;DHT22;70693;48.680;8.890;2023-12-14T12:49:35;15.80;99.90
26304;DHT22;70693;48.680;8.890;2023-12-14T12:52:00;15.80;99.90
26304;DHT22;70693;48.680;8.890;2023-12-14T12:54:26;15.80;99.90
26304;DHT22;70693;48.680;8.890;2023-12-14T12:56:52;15.80;99.90
26304;DHT22;70693;48.680;8.890;2023-12-14T12:59:17;15.80;99.90
26304;DHT22;70693;48.680;8.890;2023-12-14T13:01:43;15.80;99.90
26304;DHT22;70693;48.680;8.890;2023-12-14T13:04:21;15.80;99.90
26304;DHT22;70693;48.680;8.890;2023-12-14T13:06:48;15.90;99.90
26304;DHT22;70693;48.680;8.890;2023-12-14T13:09:17;15.90;99.90
26304;DHT22;70693;48.680;8.890;2023-12-14T13:11:44;15.90;99.90
26304;DHT22;70693;48.680;8.890;2023-12-14T13:14:10;15.90;99.90
26304;DHT22;70693;48.680;8.890;2023-12-14T13:16:36;15.90;99.90
26304;DHT22;70693;48.680;8.890;2023-12-14T13:19:02;15.90;99.90
26304;DHT22;70693;48.680;8.890;2023-12-14T13:21:32;15.90;99.90
26304;DHT22;70693;48.680;8.890;2023-12-14T13:24:03;15.90;99.90
26304;DHT22;70693;48.680;8.890;2023-12-14T13:26:29;15.90;99.90
26304;DHT22;70693;48.680;8.890;2023-12-14T13:28:55;15.90;99.90
26304;DHT22;70693;48.680;8.890;2023-12-14T13:31:21;15.90;99.90
26304;DHT22;70693;48.680;8.890;2023-12-14T13:33:47;15.90;99.90
26304;DHT22;70693;48.680;8.890;2023-12-14T13:36:14;15.90;99.90
26304;DHT22;70693;48.680;8.890;2023-12-14T13:38:40;15.90;99.90
26304;DHT22;70693;48.680;8.890;2023-12-14T13:41:07;15.90;99.90
26304;DHT22;70693;48.680;8.890;2023-12-14T13:43:32;15.90;99.90
26304;DHT22;70693;48.680;8.890;2023-12-14T13:45:58;15.90;99.90
26304;DHT22;70693;48.680;8.890;2023-12-14T13:48:27;15.90;99.90
26304;DHT22;70693;48.680;8.890;2023-12-14T13:50:54;15.90;99.90
26304;DHT22;70693;48.680;8.890;2023-12-14T13:53:21;15.90;99.90
26304;DHT22;70693;48.680;8.890;2023-12-14T13:55:47;15.90;99.90
26304;DHT22;70693;48.680;8.890;2023-12-14T13:58:14;15.90;99.90
26304;DHT22;70693;48.680;8.890;2023-12-14T14:00:40;15.90;99.90
26304;DHT22;70693;48.680;8.890;2023-12-14T14:03:06;15.90;99.90
26304;DHT22;70693;48.680;8.890;2023-12-14T14:05:32;15.90;99.90
26304;DHT22;70693;48.680;8.890;2023-12-14T14:07:58;15.90;99.90
26304;DHT22;70693;48.680;8.890;2023-12-14T14:10:24;15.90;99.90
26304;DHT22;70693;48.680;8.890;2023-12-14T14:12:50;15.90;99.90
26304;DHT22;70693;48.680;8.890;2023-12-14T14:15:16;15.90;99.90
26304;DHT22;70693;48.680;8.890;2023-12-14T14:17:41;15.80;99.80
26304;DHT22;70693;48.680;8.890;2023-12-14T14:20:08;15.80;99.80
26304;DHT22;70693;48.680;8.890;2023-12-14T14:22:38;15.80;99.80
26304;DHT22;70693;48.680;8.890;2023-12-14T14:25:05;15.90;99.80
26304;DHT22;70693;48.680;8.890;2023-12-14T14:27:34;15.80;99.80
26304;DHT22;70693;48.680;8.890;2023-12-14T14:30:00;15.80;99.80
26304;DHT22;70693;48.680;8.890;2023-12-14T14:32:26;15.80;99.80
26304;DHT22;70693;48.680;8.890;2023-12-14T14:34:52;15.80;99.80
26304;DHT22;70693;48.680;8.890;2023-12-14T14:37:20;15.80;99.80
26304;DHT22;70693;48.680;8.890;2023-12-14T14:39:46;15.80;99.80
26304;DHT22;70693;48.680;8.890;2023-12-14T14:42:13;15.80;99.80
26304;DHT22;70693;48.680;8.890;2023-12-14T14:44:39;15.80;99.80
26304;DHT22;70693;48.680;8.890;2023-12-14T14:47:04;15.80;99.80
26304;DHT22;70693;48.680;8.890;2023-12-14T14:49:30;15.80;99.80
26304;DHT22;70693;48.680;8.890;2023-12-14T14:51:56;15.80;99.80
26304;DHT22;70693;48.680;8.890;2023-12-14T14:54:21;15.80;99.80
26304;DHT22;70693;48.680;8.890;2023-12-14T14:56:47;15.80;99.70
26304;DHT22;70693;48.680;8.890;2023-12-14T14:59:12;15.80;99.70
26304;DHT22;70693;48.680;8.890;2023-12-14T15:01:41;15.80;99.70
26304;DHT22;70693;48.680;8.890;2023-12-14T15:04:07;15.80;99.70
26304;DHT22;70693;48.680;8.890;2023-12-14T15:06:32;15.80;99.80
26304;DHT22;70693;48.680;8.890;2023-12-14T15:08:59;15.80;99.90
26304;DHT22;70693;48.680;8.890;2023-12-14T15:11:25;15.80;99.90
26304;DHT22;70693;48.680;8.890;2023-12-14T15:13:50;15.80;99.90
26304;DHT22;70693;48.680;8.890;2023-12-14T15:16:16;15.80;99.90
26304;DHT22;70693;48.680;8.890;2023-12-14T15:18:43;15.80;99.90
26304;DHT22;70693;48.680;8.890;2023-12-14T15:21:09;15.80;99.90
26304;DHT22;70693;48.680;8.890;2023-12-14T15:23:35;15.80;99.90
26304;DHT22;70693;48.680;8.890;2023-12-14T15:26:01;15.70;99.90
26304;DHT22;70693;48.680;8.890;2023-12-14T15:28:26;15.80;99.90
26304;DHT22;70693;48.680;8.890;2023-12-14T15:30:52;15.80;99.90
26304;DHT22;70693;48.680;8.890;2023-12-14T15:33:17;15.80;99.90